Time,TemperatureF,DewpointF,PressureIn,WindDirection,WindDirectionDegrees,WindSpeedMPH,WindSpeedGustMPH,Humidity,HourlyPrecipIn,Conditions,Clouds,dailyrainin,SoftwareType,DateUTC
2013-06-13 00:01:00,70.8,65.7,0.00,SW,225,0.0,0.0,84,0.00,,,0.00,WUHU216HW,2013-06-13 04:01:00,
2013-06-13 00:06:00,70.5,65.4,0.00,SW,225,0.0,0.0,84,0.00,,,0.00,WUHU216HW,2013-06-13 04:06:00,
2013-06-13 00:11:00,70.5,65.4,0.00,SW,225,0.0,0.0,84,0.00,,,0.00,WUHU216HW,2013-06-13 04:11:00,
2013-06-13 00:16:00,70.1,65.0,0.00,SW,225,0.0,0.0,84,0.00,,,0.00,WUHU216HW,2013-06-13 04:16:00,
2013-06-13 00:21:00,69.9,65.2,0.00,SW,225,0.0,0.0,85,0.00,,,0.00,WUHU216HW,2013-06-13 04:21:00,
2013-06-13 00:26:00,69.9,65.2,0.00,SW,225,0.0,0.0,85,0.00,,,0.00,WUHU216HW,2013-06-13 04:26:00,
2013-06-13 00:31:00,69.6,64.8,0.00,SW,225,0.0,0.0,85,0.00,,,0.00,WUHU216HW,2013-06-13 04:31:00,
2013-06-13 00:36:00,69.6,64.8,0.00,SW,225,0.0,0.0,85,0.00,,,0.00,WUHU216HW,2013-06-13 04:36:00,
2013-06-13 00:41:00,69.4,64.6,0.00,SW,225,0.0,0.0,85,0.00,,,0.00,WUHU216HW,2013-06-13 04:41:00,
2013-06-13 00:46:00,69.4,64.6,0.00,SW,225,0.0,0.0,85,0.00,,,0.00,WUHU216HW,2013-06-13 04:46:00,
2013-06-13 00:51:00,69.4,64.6,0.00,SW,225,0.0,0.0,85,0.00,,,0.00,WUHU216HW,2013-06-13 04:51:00,
2013-06-13 00:56:00,69.0,64.6,0.00,SW,225,0.0,0.0,86,0.00,,,0.00,WUHU216HW,2013-06-13 04:56:00,
2013-06-13 01:02:00,69.0,64.6,0.00,SW,225,0.0,0.0,86,0.00,,,0.00,WUHU216HW,2013-06-13 05:02:00,
2013-06-13 01:07:00,69.0,64.6,0.00,SW,225,0.0,0.0,86,0.00,,,0.00,WUHU216HW,2013-06-13 05:07:00,
2013-06-13 01:12:00,68.9,64.5,0.00,SW,225,0.0,0.0,86,0.00,,,0.00,WUHU216HW,2013-06-13 05:12:00,
2013-06-13 01:17:00,68.7,64.3,0.00,SW,225,0.0,0.0,86,0.00,,,0.00,WUHU216HW,2013-06-13 05:17:00,
2013-06-13 01:22:00,68.7,64.3,0.00,SW,225,0.0,0.0,86,0.00,,,0.00,WUHU216HW,2013-06-13 05:22:00,
2013-06-13 01:27:00,68.7,64.3,0.00,SW,225,0.0,0.0,86,0.00,,,0.00,WUHU216HW,2013-06-13 05:27:00,
2013-06-13 01:32:00,68.7,64.0,0.00,SW,225,0.0,0.0,85,0.00,,,0.00,WUHU216HW,2013-06-13 05:32:00,
2013-06-13 01:37:00,68.5,64.1,0.00,SW,225,0.0,0.0,86,0.00,,,0.00,WUHU216HW,2013-06-13 05:37:00,
2013-06-13 01:42:00,68.3,63.9,0.00,SW,225,0.0,0.0,86,0.00,,,0.00,WUHU216HW,2013-06-13 05:42:00,
2013-06-13 01:47:00,68.3,63.9,0.00,SW,225,0.0,0.0,86,0.00,,,0.00,WUHU216HW,2013-06-13 05:47:00,
2013-06-13 01:52:00,68.3,63.9,0.00,SW,225,0.0,0.0,86,0.00,,,0.00,WUHU216HW,2013-06-13 05:52:00,
2013-06-13 01:57:00,68.3,63.9,0.00,SW,225,0.0,0.0,86,0.00,,,0.00,WUHU216HW,2013-06-13 05:57:00,
2013-06-13 02:02:00,68.1,63.8,0.00,SW,225,0.0,0.0,86,0.00,,,0.00,WUHU216HW,2013-06-13 06:02:00,
2013-06-13 02:07:00,68.1,63.8,0.00,SW,225,0.0,0.0,86,0.00,,,0.00,WUHU216HW,2013-06-13 06:07:00,
2013-06-13 02:12:00,68.1,63.8,0.00,SW,225,0.0,0.0,86,0.00,,,0.00,WUHU216HW,2013-06-13 06:12:00,
2013-06-13 02:17:00,67.8,63.4,0.00,SW,225,0.0,0.0,86,0.00,,,0.00,WUHU216HW,2013-06-13 06:17:00,
2013-06-13 02:22:00,67.8,63.4,0.00,SW,225,0.0,0.0,86,0.00,,,0.00,WUHU216HW,2013-06-13 06:22:00,
2013-06-13 02:27:00,67.6,63.2,0.00,SW,225,0.0,0.0,86,0.00,,,0.00,WUHU216HW,2013-06-13 06:27:00,
2013-06-13 02:32:00,67.6,63.6,0.00,SW,225,0.0,0.0,87,0.00,,,0.00,WUHU216HW,2013-06-13 06:32:00,
2013-06-13 02:37:00,67.4,63.4,0.00,SW,225,0.0,0.0,87,0.00,,,0.00,WUHU216HW,2013-06-13 06:37:00,
2013-06-13 02:42:00,67.2,62.9,0.00,SW,225,0.0,0.0,86,0.00,,,0.00,WUHU216HW,2013-06-13 06:42:00,
2013-06-13 02:47:00,67.2,62.9,0.00,SW,225,0.0,0.0,86,0.00,,,0.00,WUHU216HW,2013-06-13 06:47:00,
2013-06-13 02:52:00,67.2,63.2,0.00,SW,225,0.0,0.0,87,0.00,,,0.00,WUHU216HW,2013-06-13 06:52:00,
2013-06-13 02:57:00,67.1,63.0,0.00,SW,225,0.0,0.0,87,0.00,,,0.00,WUHU216HW,2013-06-13 06:57:00,
2013-06-13 03:02:00,66.9,62.8,0.00,SW,225,0.0,0.0,87,0.00,,,0.00,WUHU216HW,2013-06-13 07:02:00,
2013-06-13 03:07:00,66.9,62.8,0.00,SW,225,0.0,0.0,87,0.00,,,0.00,WUHU216HW,2013-06-13 07:07:00,
2013-06-13 03:12:00,66.9,62.8,0.00,SW,225,0.0,0.0,87,0.00,,,0.00,WUHU216HW,2013-06-13 07:12:00,
2013-06-13 03:17:00,66.9,62.8,0.00,SW,225,0.0,0.0,87,0.00,,,0.00,WUHU216HW,2013-06-13 07:17:00,
2013-06-13 03:22:00,66.9,62.8,0.00,SW,225,0.0,0.0,87,0.00,,,0.00,WUHU216HW,2013-06-13 07:22:00,
2013-06-13 03:27:00,66.7,62.7,0.00,SW,225,0.0,0.0,87,0.00,,,0.00,WUHU216HW,2013-06-13 07:27:00,
2013-06-13 03:32:00,66.7,62.7,0.00,SW,225,0.0,0.0,87,0.00,,,0.00,WUHU216HW,2013-06-13 07:32:00,
2013-06-13 03:37:00,66.7,62.7,0.00,SW,225,0.0,0.0,87,0.00,,,0.00,WUHU216HW,2013-06-13 07:37:00,
2013-06-13 03:42:00,66.7,62.7,0.00,SW,225,0.0,0.0,87,0.00,,,0.00,WUHU216HW,2013-06-13 07:42:00,
2013-06-13 03:47:00,66.7,62.7,0.00,SW,225,0.0,0.0,87,0.00,,,0.00,WUHU216HW,2013-06-13 07:47:00,
2013-06-13 03:52:00,66.7,62.7,0.00,SW,225,0.0,0.0,87,0.00,,,0.00,WUHU216HW,2013-06-13 07:52:00,
2013-06-13 03:57:00,66.3,62.3,0.00,SW,225,0.0,0.0,87,0.00,,,0.00,WUHU216HW,2013-06-13 07:57:00,
2013-06-13 04:02:00,66.2,62.1,0.00,SW,225,0.0,0.0,87,0.00,,,0.00,WUHU216HW,2013-06-13 08:02:00,
2013-06-13 04:07:00,66.0,61.9,0.00,SW,225,0.0,0.0,87,0.00,,,0.00,WUHU216HW,2013-06-13 08:07:00,
2013-06-13 04:12:00,66.0,61.9,0.00,SW,225,0.0,0.0,87,0.00,,,0.00,WUHU216HW,2013-06-13 08:12:00,
2013-06-13 04:17:00,65.8,61.8,0.00,SW,225,0.0,0.0,87,0.00,,,0.00,WUHU216HW,2013-06-13 08:17:00,
2013-06-13 04:22:00,65.8,61.8,0.00,SW,225,0.0,0.0,87,0.00,,,0.00,WUHU216HW,2013-06-13 08:22:00,
2013-06-13 04:27:00,65.6,61.6,0.00,SW,225,0.0,0.0,87,0.00,,,0.00,WUHU216HW,2013-06-13 08:27:00,
2013-06-13 04:32:00,65.4,61.4,0.00,SW,225,0.0,0.0,87,0.00,,,0.00,WUHU216HW,2013-06-13 08:32:00,
2013-06-13 04:37:00,65.4,61.4,0.00,SW,225,0.0,0.0,87,0.00,,,0.00,WUHU216HW,2013-06-13 08:37:00,
2013-06-13 04:42:00,65.4,61.4,0.00,SW,225,0.0,0.0,87,0.00,,,0.00,WUHU216HW,2013-06-13 08:42:00,
2013-06-13 04:47:00,65.3,61.3,0.00,SW,225,0.0,0.0,87,0.00,,,0.00,WUHU216HW,2013-06-13 08:47:00,
2013-06-13 04:52:00,65.3,61.3,0.00,SW,225,0.0,0.0,87,0.00,,,0.00,WUHU216HW,2013-06-13 08:52:00,
2013-06-13 04:57:00,65.3,61.3,0.00,SW,225,0.0,0.0,87,0.00,,,0.00,WUHU216HW,2013-06-13 08:57:00,
2013-06-13 05:02:00,65.3,61.6,0.00,SW,225,0.0,0.0,88,0.00,,,0.00,WUHU216HW,2013-06-13 09:02:00,
2013-06-13 05:07:00,65.3,61.6,0.00,SW,225,0.0,0.0,88,0.00,,,0.00,WUHU216HW,2013-06-13 09:07:00,
2013-06-13 05:12:00,65.3,61.6,0.00,North,0,0.0,0.0,88,0.00,,,0.00,WUHU216HW,2013-06-13 09:12:00,
2013-06-13 05:17:00,65.4,61.8,0.00,SW,225,0.0,0.0,88,0.00,,,0.00,WUHU216HW,2013-06-13 09:17:00,
2013-06-13 05:22:00,65.3,61.6,0.00,SW,225,0.0,0.0,88,0.00,,,0.00,WUHU216HW,2013-06-13 09:22:00,
2013-06-13 05:27:00,65.3,61.6,0.00,SW,225,0.0,0.0,88,0.00,,,0.00,WUHU216HW,2013-06-13 09:27:00,
2013-06-13 05:32:00,65.3,61.6,0.00,SW,225,0.0,0.0,88,0.00,,,0.00,WUHU216HW,2013-06-13 09:32:00,
2013-06-13 05:37:00,65.1,61.4,0.00,SW,225,0.0,0.0,88,0.00,,,0.00,WUHU216HW,2013-06-13 09:37:00,
2013-06-13 05:42:00,65.1,61.4,0.00,SW,225,0.0,0.0,88,0.00,,,0.00,WUHU216HW,2013-06-13 09:42:00,
2013-06-13 05:47:00,65.1,61.4,0.00,SW,225,0.0,0.0,88,0.00,,,0.00,WUHU216HW,2013-06-13 09:47:00,
2013-06-13 05:52:00,64.9,61.3,0.00,SW,225,0.0,0.0,88,0.00,,,0.00,WUHU216HW,2013-06-13 09:52:00,
2013-06-13 05:57:00,64.9,61.3,0.00,SW,225,0.0,0.0,88,0.00,,,0.00,WUHU216HW,2013-06-13 09:57:00,
2013-06-13 06:02:00,64.7,61.1,0.00,SW,225,0.0,0.0,88,0.00,,,0.00,WUHU216HW,2013-06-13 10:02:00,
2013-06-13 06:07:00,64.7,61.1,0.00,SW,225,0.0,0.0,88,0.00,,,0.00,WUHU216HW,2013-06-13 10:07:00,
2013-06-13 06:12:00,64.5,60.9,0.00,SW,225,0.0,0.0,88,0.00,,,0.00,WUHU216HW,2013-06-13 10:12:00,
2013-06-13 06:17:00,64.5,60.9,0.00,SW,225,0.0,0.0,88,0.00,,,0.00,WUHU216HW,2013-06-13 10:17:00,
2013-06-13 06:22:00,64.2,60.6,0.00,SW,225,0.0,0.0,88,0.00,,,0.00,WUHU216HW,2013-06-13 10:22:00,
2013-06-13 06:27:00,64.2,60.6,0.00,SW,225,0.0,0.0,88,0.00,,,0.00,WUHU216HW,2013-06-13 10:27:00,
2013-06-13 06:32:00,64.2,60.6,0.00,SW,225,0.0,0.0,88,0.00,,,0.00,WUHU216HW,2013-06-13 10:32:00,
2013-06-13 06:37:00,64.2,60.6,0.00,SW,225,0.0,0.0,88,0.00,,,0.00,WUHU216HW,2013-06-13 10:37:00,
2013-06-13 06:42:00,64.2,60.6,0.00,SW,225,0.0,0.0,88,0.00,,,0.00,WUHU216HW,2013-06-13 10:42:00,
2013-06-13 06:47:00,64.2,60.6,0.00,SW,225,0.0,0.0,88,0.00,,,0.00,WUHU216HW,2013-06-13 10:47:00,
2013-06-13 06:52:00,64.0,60.4,0.00,SW,225,0.0,0.0,88,0.00,,,0.00,WUHU216HW,2013-06-13 10:52:00,
2013-06-13 06:56:00,63.8,60.2,0.00,SW,225,0.0,0.0,88,0.00,,,0.00,WUHU216HW,2013-06-13 10:56:00,
2013-06-13 07:02:00,63.8,60.2,0.00,SW,225,0.0,0.0,88,0.00,,,0.00,WUHU216HW,2013-06-13 11:02:00,
2013-06-13 07:06:00,64.0,60.4,0.00,SW,225,0.0,0.0,88,0.00,,,0.00,WUHU216HW,2013-06-13 11:06:00,
2013-06-13 07:11:00,64.0,60.4,0.00,SW,225,0.0,0.0,88,0.00,,,0.00,WUHU216HW,2013-06-13 11:11:00,
2013-06-13 07:16:00,64.0,60.4,0.00,SW,225,0.0,0.0,88,0.00,,,0.00,WUHU216HW,2013-06-13 11:16:00,
2013-06-13 07:21:00,64.0,60.8,0.00,SW,225,0.0,0.0,89,0.00,,,0.00,WUHU216HW,2013-06-13 11:21:00,
2013-06-13 07:26:00,64.0,60.8,0.00,SW,225,0.0,0.0,89,0.00,,,0.00,WUHU216HW,2013-06-13 11:26:00,
2013-06-13 07:31:00,64.2,60.9,0.00,SW,225,0.0,0.0,89,0.00,,,0.00,WUHU216HW,2013-06-13 11:31:00,
2013-06-13 07:36:00,64.2,60.9,0.00,SW,225,0.0,0.0,89,0.00,,,0.00,WUHU216HW,2013-06-13 11:36:00,
2013-06-13 07:41:00,64.2,60.9,0.00,SW,225,0.0,0.0,89,0.00,,,0.00,WUHU216HW,2013-06-13 11:41:00,
2013-06-13 07:46:00,64.4,61.1,0.00,SW,225,0.0,0.0,89,0.00,,,0.00,WUHU216HW,2013-06-13 11:46:00,
2013-06-13 07:51:00,64.5,61.3,0.00,SW,225,0.0,0.0,89,0.00,,,0.00,WUHU216HW,2013-06-13 11:51:00,
2013-06-13 07:56:00,64.7,61.5,0.00,SW,225,0.0,0.0,89,0.00,,,0.00,WUHU216HW,2013-06-13 11:56:00,
2013-06-13 08:01:00,64.9,61.6,0.00,SW,225,0.0,0.0,89,0.00,,,0.00,WUHU216HW,2013-06-13 12:01:00,
2013-06-13 08:06:00,65.1,61.8,0.00,SW,225,0.0,0.0,89,0.00,,,0.00,WUHU216HW,2013-06-13 12:06:00,
2013-06-13 08:11:00,65.4,62.1,0.00,SW,225,0.0,0.0,89,0.00,,,0.00,WUHU216HW,2013-06-13 12:11:00,
2013-06-13 08:16:00,65.6,62.3,0.00,SW,225,0.0,0.0,89,0.00,,,0.00,WUHU216HW,2013-06-13 12:16:00,
2013-06-13 08:21:00,66.0,62.6,0.00,SW,225,0.0,0.0,89,0.00,,,0.00,WUHU216HW,2013-06-13 12:21:00,
2013-06-13 08:26:00,66.0,62.6,0.00,SW,225,0.0,0.0,89,0.00,,,0.00,WUHU216HW,2013-06-13 12:26:00,
2013-06-13 08:31:00,66.5,63.1,0.00,SW,225,0.0,0.0,89,0.00,,,0.00,WUHU216HW,2013-06-13 12:31:00,
2013-06-13 08:36:00,66.9,63.8,0.00,SW,225,0.0,0.0,90,0.00,,,0.00,WUHU216HW,2013-06-13 12:36:00,
2013-06-13 08:41:00,67.6,64.5,0.00,SW,225,0.0,0.0,90,0.00,,,0.00,WUHU216HW,2013-06-13 12:41:00,
2013-06-13 08:46:00,67.8,64.7,0.00,SW,225,0.0,0.0,90,0.00,,,0.00,WUHU216HW,2013-06-13 12:46:00,
2013-06-13 08:51:00,68.1,65.1,0.00,SW,225,0.0,0.0,90,0.00,,,0.00,WUHU216HW,2013-06-13 12:51:00,
2013-06-13 08:56:00,68.7,65.6,0.00,SW,225,0.0,0.0,90,0.00,,,0.00,WUHU216HW,2013-06-13 12:56:00,
2013-06-13 09:01:00,69.0,66.0,0.00,SW,225,0.0,0.0,90,0.00,,,0.00,WUHU216HW,2013-06-13 13:01:00,
2013-06-13 09:06:00,69.6,66.5,0.00,SW,225,0.0,0.0,90,0.00,,,0.00,WUHU216HW,2013-06-13 13:06:00,
2013-06-13 09:11:00,70.1,67.1,0.00,SW,225,0.0,0.0,90,0.00,,,0.00,WUHU216HW,2013-06-13 13:11:00,
2013-06-13 09:16:00,70.7,67.6,0.00,SSE,158,0.0,0.0,90,0.00,,,0.00,WUHU216HW,2013-06-13 13:16:00,
2013-06-13 09:21:00,71.2,68.1,0.00,SSE,158,0.0,0.0,90,0.00,,,0.00,WUHU216HW,2013-06-13 13:21:00,
2013-06-13 09:26:00,71.4,68.3,0.00,SE,135,0.0,0.0,90,0.00,,,0.00,WUHU216HW,2013-06-13 13:26:00,
2013-06-13 09:31:00,72.1,68.7,0.00,SE,135,0.0,0.0,89,0.00,,,0.00,WUHU216HW,2013-06-13 13:31:00,
2013-06-13 09:36:00,72.3,68.9,0.00,SE,135,0.0,0.0,89,0.00,,,0.00,WUHU216HW,2013-06-13 13:36:00,
2013-06-13 09:41:00,72.6,69.2,0.00,SE,135,0.0,0.0,89,0.00,,,0.00,WUHU216HW,2013-06-13 13:41:00,
2013-06-13 09:46:00,73.0,69.2,0.00,SE,135,0.0,0.0,88,0.00,,,0.00,WUHU216HW,2013-06-13 13:46:00,
2013-06-13 09:51:00,73.5,69.8,0.00,SE,135,0.0,0.0,88,0.00,,,0.00,WUHU216HW,2013-06-13 13:51:00,
2013-06-13 09:56:00,73.9,70.1,0.00,SE,135,0.0,0.0,88,0.00,,,0.00,WUHU216HW,2013-06-13 13:56:00,
2013-06-13 10:01:00,74.1,70.0,0.00,SE,135,0.0,0.0,87,0.00,,,0.00,WUHU216HW,2013-06-13 14:01:00,
2013-06-13 10:06:00,74.3,70.2,0.00,SE,135,0.0,0.0,87,0.00,,,0.00,WUHU216HW,2013-06-13 14:06:00,
2013-06-13 10:11:00,74.8,70.4,0.00,SSE,158,0.0,0.0,86,0.00,,,0.00,WUHU216HW,2013-06-13 14:11:00,
2013-06-13 10:16:00,75.2,70.4,0.00,SE,135,0.0,0.0,85,0.00,,,0.00,WUHU216HW,2013-06-13 14:16:00,
2013-06-13 10:21:00,75.7,70.5,0.00,SSE,158,0.0,0.0,84,0.00,,,0.00,WUHU216HW,2013-06-13 14:21:00,
2013-06-13 10:26:00,76.2,70.3,0.00,SSE,158,0.0,0.0,82,0.00,,,0.00,WUHU216HW,2013-06-13 14:26:00,
2013-06-13 10:31:00,77.0,70.8,0.00,SSE,158,0.0,0.0,81,0.00,,,0.00,WUHU216HW,2013-06-13 14:31:00,
2013-06-13 10:36:00,77.5,70.8,0.00,SSE,158,0.0,0.0,80,0.00,,,0.00,WUHU216HW,2013-06-13 14:36:00,
2013-06-13 10:41:00,78.0,71.0,0.00,SSE,158,0.0,0.0,79,0.00,,,0.00,WUHU216HW,2013-06-13 14:41:00,
2013-06-13 10:46:00,78.6,71.1,0.00,SSE,158,0.0,0.0,78,0.00,,,0.00,WUHU216HW,2013-06-13 14:46:00,
2013-06-13 10:51:00,79.1,71.3,0.00,SSE,158,0.0,0.0,76,0.00,,,0.00,WUHU216HW,2013-06-13 14:51:00,
2013-06-13 10:56:00,79.3,69.9,0.00,SSE,158,0.0,0.0,73,0.00,,,0.00,WUHU216HW,2013-06-13 14:56:00,
2013-06-13 11:01:00,79.8,70.4,0.00,SSE,158,0.0,0.0,73,0.00,,,0.00,WUHU216HW,2013-06-13 15:01:00,
2013-06-13 11:06:00,80.4,70.5,0.00,SSE,158,0.0,0.0,72,0.00,,,0.00,WUHU216HW,2013-06-13 15:06:00,
2013-06-13 11:11:00,80.7,70.9,0.00,SSE,158,0.0,0.0,72,0.00,,,0.00,WUHU216HW,2013-06-13 15:11:00,
2013-06-13 11:16:00,81.1,70.8,0.00,SSE,158,0.0,0.0,71,0.00,,,0.00,WUHU216HW,2013-06-13 15:16:00,
2013-06-13 11:21:00,81.3,70.6,0.00,SSE,158,0.0,0.0,70,0.00,,,0.00,WUHU216HW,2013-06-13 15:21:00,
2013-06-13 11:26:00,81.6,70.5,0.00,SSE,158,0.0,0.0,69,0.00,,,0.00,WUHU216HW,2013-06-13 15:26:00,
2013-06-13 11:31:00,82.0,70.3,0.00,SSE,158,0.0,0.0,68,0.00,,,0.00,WUHU216HW,2013-06-13 15:31:00,
2013-06-13 11:36:00,82.2,70.5,0.00,SSE,158,0.0,0.0,68,0.00,,,0.00,WUHU216HW,2013-06-13 15:36:00,
2013-06-13 11:41:00,82.7,70.6,0.00,SSE,158,0.0,0.0,67,0.00,,,0.00,WUHU216HW,2013-06-13 15:41:00,
2013-06-13 11:46:00,82.9,70.3,0.00,SSE,158,0.0,0.0,66,0.00,,,0.00,WUHU216HW,2013-06-13 15:46:00,
2013-06-13 11:51:00,82.9,69.8,0.00,SSE,158,0.0,0.0,65,0.00,,,0.00,WUHU216HW,2013-06-13 15:51:00,
2013-06-13 11:56:00,83.3,70.2,0.00,SSE,158,0.0,0.0,65,0.00,,,0.00,WUHU216HW,2013-06-13 15:56:00,
2013-06-13 12:01:00,83.4,70.4,0.00,SSE,158,0.0,0.0,65,0.00,,,0.00,WUHU216HW,2013-06-13 16:01:00,
2013-06-13 12:06:00,83.8,69.8,0.00,SSE,158,0.0,0.0,63,0.00,,,0.00,WUHU216HW,2013-06-13 16:06:00,
2013-06-13 12:11:00,83.8,69.8,0.00,SSE,158,0.0,0.0,63,0.00,,,0.00,WUHU216HW,2013-06-13 16:11:00,
2013-06-13 12:16:00,84.0,69.6,0.00,SSE,158,0.0,0.0,62,0.00,,,0.00,WUHU216HW,2013-06-13 16:16:00,
2013-06-13 12:21:00,84.3,69.9,0.00,SSE,158,0.0,0.0,62,0.00,,,0.00,WUHU216HW,2013-06-13 16:21:00,
2013-06-13 12:26:00,84.9,69.9,0.00,SSE,158,0.0,0.0,61,0.00,,,0.00,WUHU216HW,2013-06-13 16:26:00,
2013-06-13 12:31:00,85.1,70.1,0.00,SSE,158,0.0,0.0,61,0.00,,,0.00,WUHU216HW,2013-06-13 16:31:00,
2013-06-13 12:36:00,85.4,70.4,0.00,SSE,158,0.0,0.0,61,0.00,,,0.00,WUHU216HW,2013-06-13 16:36:00,
2013-06-13 12:41:00,85.8,70.3,0.00,South,180,0.0,0.0,61,0.00,,,0.00,WUHU216HW,2013-06-13 16:41:00,
2013-06-13 12:46:00,86.0,69.9,0.00,South,180,0.0,0.0,59,0.00,,,0.00,WUHU216HW,2013-06-13 16:46:00,
2013-06-13 12:51:00,86.1,69.1,0.00,WNW,293,0.0,0.0,57,0.00,,,0.00,WUHU216HW,2013-06-13 16:51:00,
2013-06-13 12:56:00,86.5,69.9,0.00,South,180,0.0,0.0,58,0.00,,,0.00,WUHU216HW,2013-06-13 16:56:00,
2013-06-13 13:01:00,86.9,70.3,0.00,SSW,203,0.0,0.0,58,0.00,,,0.00,WUHU216HW,2013-06-13 17:01:00,
2013-06-13 13:06:00,87.2,70.1,0.00,SSW,203,0.0,0.0,57,0.00,,,0.00,WUHU216HW,2013-06-13 17:06:00,
2013-06-13 13:11:00,87.0,70.5,0.00,SSW,203,0.0,0.0,58,0.00,,,0.00,WUHU216HW,2013-06-13 17:11:00,
2013-06-13 13:16:00,86.7,70.7,0.00,WSW,248,0.0,0.0,59,0.00,,,0.00,WUHU216HW,2013-06-13 17:16:00,
2013-06-13 13:21:00,86.1,70.1,0.00,WSW,248,0.0,0.0,59,0.00,,,0.00,WUHU216HW,2013-06-13 17:21:00,
2013-06-13 13:26:00,85.8,70.3,0.00,WSW,248,0.0,0.0,60,0.00,,,0.00,WUHU216HW,2013-06-13 17:26:00,
2013-06-13 13:31:00,85.6,70.1,0.00,WSW,248,0.0,0.0,60,0.00,,,0.00,WUHU216HW,2013-06-13 17:31:00,
2013-06-13 13:36:00,85.2,70.3,0.00,North,0,0.0,0.0,61,0.00,,,0.00,WUHU216HW,2013-06-13 17:36:00,
2013-06-13 13:41:00,84.7,70.2,0.00,WSW,248,0.0,0.0,62,0.00,,,0.00,WUHU216HW,2013-06-13 17:41:00,
2013-06-13 13:46:00,84.3,69.9,0.00,WSW,248,0.0,0.0,62,0.00,,,0.00,WUHU216HW,2013-06-13 17:46:00,
2013-06-13 13:51:00,84.0,70.5,0.00,WSW,248,0.0,0.0,64,0.00,,,0.00,WUHU216HW,2013-06-13 17:51:00,
2013-06-13 13:56:00,83.8,70.3,0.00,WSW,248,0.0,0.0,64,0.00,,,0.00,WUHU216HW,2013-06-13 17:56:00,
2013-06-13 14:01:00,83.3,69.8,0.00,WSW,248,0.0,0.0,64,0.00,,,0.00,WUHU216HW,2013-06-13 18:01:00,
2013-06-13 14:06:00,83.1,70.0,0.00,WSW,248,0.0,0.0,65,0.00,,,0.00,WUHU216HW,2013-06-13 18:06:00,
2013-06-13 14:11:00,83.4,70.8,0.00,WSW,248,0.0,0.0,66,0.00,,,0.00,WUHU216HW,2013-06-13 18:11:00,
2013-06-13 14:16:00,84.0,70.9,0.00,WSW,248,0.0,0.0,65,0.00,,,0.00,WUHU216HW,2013-06-13 18:16:00,
2013-06-13 14:21:00,84.5,71.4,0.00,WSW,248,0.0,0.0,65,0.00,,,0.00,WUHU216HW,2013-06-13 18:21:00,
2013-06-13 14:26:00,84.7,69.8,0.00,WSW,248,0.0,0.0,61,0.00,,,0.00,WUHU216HW,2013-06-13 18:26:00,
2013-06-13 14:31:00,84.7,69.8,0.00,WSW,248,0.0,0.0,61,0.00,,,0.00,WUHU216HW,2013-06-13 18:31:00,
2013-06-13 14:36:00,84.3,69.9,0.00,WSW,248,0.0,0.0,62,0.00,,,0.00,WUHU216HW,2013-06-13 18:36:00,
2013-06-13 14:41:00,83.8,69.4,0.00,WSW,248,0.0,0.0,62,0.00,,,0.00,WUHU216HW,2013-06-13 18:41:00,
2013-06-13 14:46:00,83.1,69.1,0.00,WSW,248,0.0,0.0,63,0.00,,,0.00,WUHU216HW,2013-06-13 18:46:00,
2013-06-13 14:50:00,82.7,69.0,0.00,WSW,248,0.0,0.0,63,0.00,,,0.00,WUHU216HW,2013-06-13 18:50:00,
2013-06-13 14:55:00,82.0,69.1,0.00,WNW,293,0.0,0.0,65,0.00,,,0.00,WUHU216HW,2013-06-13 18:55:00,
2013-06-13 15:00:00,81.3,68.3,0.00,West,270,0.0,0.0,65,0.00,,,0.00,WUHU216HW,2013-06-13 19:00:00,
2013-06-13 15:05:00,79.3,67.8,0.00,NW,315,0.0,0.0,67,0.02,,,0.02,WUHU216HW,2013-06-13 19:05:00,
2013-06-13 15:10:00,77.5,67.0,0.00,NW,315,0.0,0.0,70,0.02,,,0.02,WUHU216HW,2013-06-13 19:10:00,
2013-06-13 15:15:00,76.8,67.1,0.00,NW,315,0.0,0.0,72,0.02,,,0.02,WUHU216HW,2013-06-13 19:15:00,
2013-06-13 15:20:00,76.2,66.9,0.00,NW,315,0.0,0.0,73,0.02,,,0.02,WUHU216HW,2013-06-13 19:20:00,
2013-06-13 15:25:00,75.9,67.0,0.00,NW,315,0.0,0.0,74,0.02,,,0.02,WUHU216HW,2013-06-13 19:25:00,
2013-06-13 15:30:00,75.7,67.2,0.00,NW,315,0.0,0.0,75,0.02,,,0.02,WUHU216HW,2013-06-13 19:30:00,
2013-06-13 15:35:00,75.7,67.4,0.00,NW,315,0.0,0.0,76,0.02,,,0.02,WUHU216HW,2013-06-13 19:35:00,
2013-06-13 15:40:00,75.7,68.0,0.00,NW,315,0.0,0.0,77,0.02,,,0.02,WUHU216HW,2013-06-13 19:40:00,
2013-06-13 15:46:00,75.9,68.5,0.00,NNW,338,0.0,0.0,78,0.02,,,0.02,WUHU216HW,2013-06-13 19:46:00,
2013-06-13 15:51:00,76.2,69.6,0.00,SSE,158,0.0,0.0,79,0.02,,,0.02,WUHU216HW,2013-06-13 19:51:00,
2013-06-13 15:55:00,76.8,69.4,0.00,SSE,158,0.0,0.0,78,0.02,,,0.02,WUHU216HW,2013-06-13 19:55:00,
2013-06-13 16:00:00,76.6,69.2,0.00,SSE,158,0.0,0.0,78,0.00,,,0.02,WUHU216HW,2013-06-13 20:00:00,
2013-06-13 16:05:00,76.6,69.2,0.00,SSE,158,0.0,0.0,78,0.00,,,0.02,WUHU216HW,2013-06-13 20:05:00,
2013-06-13 16:10:00,76.4,69.0,0.00,SSE,158,0.0,0.0,78,0.00,,,0.02,WUHU216HW,2013-06-13 20:10:00,
2013-06-13 16:15:00,76.1,68.7,0.00,SSE,158,0.0,0.0,78,0.00,,,0.02,WUHU216HW,2013-06-13 20:15:00,
2013-06-13 16:20:00,75.7,68.8,0.00,SSE,158,0.0,0.0,79,0.00,,,0.02,WUHU216HW,2013-06-13 20:20:00,
2013-06-13 16:25:00,75.5,68.6,0.00,SSE,158,0.0,0.0,79,0.00,,,0.02,WUHU216HW,2013-06-13 20:25:00,
2013-06-13 16:30:00,75.3,68.4,0.00,SSE,158,0.0,0.0,79,0.00,,,0.02,WUHU216HW,2013-06-13 20:30:00,
2013-06-13 16:35:00,75.3,68.4,0.00,SSE,158,0.0,0.0,79,0.00,,,0.02,WUHU216HW,2013-06-13 20:35:00,
2013-06-13 16:40:00,74.4,67.2,0.00,WNW,293,0.0,0.0,78,0.02,,,0.04,WUHU216HW,2013-06-13 20:40:00,
2013-06-13 16:45:00,72.8,65.6,0.00,West,270,0.0,1.3,78,0.06,,,0.08,WUHU216HW,2013-06-13 20:45:00,
2013-06-13 16:50:00,71.2,64.0,0.00,WNW,293,0.0,1.3,78,0.06,,,0.08,WUHU216HW,2013-06-13 20:50:00,
2013-06-13 16:55:00,70.3,63.8,0.00,WNW,293,0.0,0.0,80,0.06,,,0.08,WUHU216HW,2013-06-13 20:55:00,
2013-06-13 17:00:00,69.8,63.6,0.00,WNW,293,0.0,0.0,81,0.06,,,0.08,WUHU216HW,2013-06-13 21:00:00,
2013-06-13 17:05:00,69.6,63.8,0.00,WNW,293,0.0,0.0,82,0.06,,,0.08,WUHU216HW,2013-06-13 21:05:00,
2013-06-13 17:10:00,69.4,63.6,0.00,WNW,293,0.0,0.0,82,0.06,,,0.08,WUHU216HW,2013-06-13 21:10:00,
2013-06-13 17:15:00,69.0,63.3,0.00,WNW,293,0.0,0.0,82,0.06,,,0.08,WUHU216HW,2013-06-13 21:15:00,
2013-06-13 17:20:00,68.9,63.5,0.00,WNW,293,0.0,0.0,83,0.06,,,0.08,WUHU216HW,2013-06-13 21:20:00,
2013-06-13 17:25:00,68.9,63.5,0.00,WNW,293,0.0,0.0,83,0.06,,,0.08,WUHU216HW,2013-06-13 21:25:00,
2013-06-13 17:30:00,68.7,63.3,0.00,West,270,0.0,0.0,83,0.06,,,0.08,WUHU216HW,2013-06-13 21:30:00,
2013-06-13 17:35:00,68.5,63.1,0.00,WSW,248,0.0,0.0,83,0.06,,,0.08,WUHU216HW,2013-06-13 21:35:00,
2013-06-13 17:40:00,68.3,62.9,0.00,WSW,248,0.0,0.0,83,0.02,,,0.08,WUHU216HW,2013-06-13 21:40:00,
2013-06-13 17:45:00,68.1,63.1,0.00,WSW,248,0.0,0.0,84,0.00,,,0.08,WUHU216HW,2013-06-13 21:45:00,
2013-06-13 17:50:00,68.1,63.1,0.00,WSW,248,0.0,0.0,84,0.00,,,0.08,WUHU216HW,2013-06-13 21:50:00,
2013-06-13 17:55:00,68.1,63.1,0.00,WSW,248,0.0,0.0,84,0.00,,,0.08,WUHU216HW,2013-06-13 21:55:00,
2013-06-13 18:00:00,67.8,62.8,0.00,WSW,248,0.0,0.0,84,0.00,,,0.08,WUHU216HW,2013-06-13 22:00:00,
2013-06-13 18:05:00,67.8,63.1,0.00,WSW,248,0.0,0.0,85,0.00,,,0.08,WUHU216HW,2013-06-13 22:05:00,
2013-06-13 18:10:00,67.8,63.1,0.00,WSW,248,0.0,0.0,85,0.00,,,0.08,WUHU216HW,2013-06-13 22:10:00,
2013-06-13 18:15:00,67.8,63.1,0.00,WSW,248,0.0,0.0,85,0.00,,,0.08,WUHU216HW,2013-06-13 22:15:00,
2013-06-13 18:20:00,67.8,63.1,0.00,WSW,248,0.0,0.0,85,0.00,,,0.08,WUHU216HW,2013-06-13 22:20:00,
2013-06-13 18:25:00,67.8,63.1,0.00,WSW,248,0.0,0.0,85,0.00,,,0.08,WUHU216HW,2013-06-13 22:25:00,
2013-06-13 18:30:00,68.0,63.3,0.00,WSW,248,0.0,0.0,85,0.00,,,0.08,WUHU216HW,2013-06-13 22:30:00,
2013-06-13 18:35:00,68.1,63.4,0.00,WSW,248,0.0,0.0,85,0.00,,,0.08,WUHU216HW,2013-06-13 22:35:00,
2013-06-13 18:40:00,68.1,63.4,0.00,WSW,248,0.0,0.4,85,0.00,,,0.08,WUHU216HW,2013-06-13 22:40:00,
2013-06-13 18:45:00,68.1,63.4,0.00,WSW,248,0.0,0.4,85,0.00,,,0.08,WUHU216HW,2013-06-13 22:45:00,
2013-06-13 18:50:00,68.1,63.8,0.00,WSW,248,0.0,0.0,86,0.00,,,0.08,WUHU216HW,2013-06-13 22:50:00,
2013-06-13 18:55:00,68.3,63.9,0.00,WSW,248,0.0,0.0,86,0.00,,,0.08,WUHU216HW,2013-06-13 22:55:00,
2013-06-13 19:00:00,68.5,64.1,0.00,WSW,248,0.0,0.0,86,0.00,,,0.08,WUHU216HW,2013-06-13 23:00:00,
2013-06-13 19:05:00,68.5,64.1,0.00,WSW,248,0.0,0.0,86,0.00,,,0.08,WUHU216HW,2013-06-13 23:05:00,
2013-06-13 19:10:00,68.5,64.1,0.00,WSW,248,0.0,0.0,86,0.00,,,0.08,WUHU216HW,2013-06-13 23:10:00,
2013-06-13 19:15:00,68.7,64.3,0.00,WSW,248,0.0,0.0,86,0.00,,,0.08,WUHU216HW,2013-06-13 23:15:00,
2013-06-13 19:20:00,68.7,64.3,0.00,WSW,248,0.0,0.0,86,0.00,,,0.08,WUHU216HW,2013-06-13 23:20:00,
2013-06-13 19:25:00,68.7,64.3,0.00,WSW,248,0.0,0.0,86,0.00,,,0.08,WUHU216HW,2013-06-13 23:25:00,
2013-06-13 19:30:00,68.7,64.3,0.00,WSW,248,0.0,0.0,86,0.00,,,0.08,WUHU216HW,2013-06-13 23:30:00,
2013-06-13 19:35:00,68.7,64.3,0.00,WSW,248,0.0,0.0,86,0.00,,,0.08,WUHU216HW,2013-06-13 23:35:00,
2013-06-13 19:40:00,68.5,64.1,0.00,WSW,248,0.0,0.0,86,0.00,,,0.08,WUHU216HW,2013-06-13 23:40:00,
2013-06-13 19:45:00,68.5,64.1,0.00,WSW,248,0.0,0.0,86,0.00,,,0.08,WUHU216HW,2013-06-13 23:45:00,
2013-06-13 19:50:00,68.7,64.6,0.00,WSW,248,0.0,0.0,87,0.00,,,0.08,WUHU216HW,2013-06-13 23:50:00,
2013-06-13 19:55:00,68.7,64.6,0.00,SE,135,0.0,0.0,87,0.00,,,0.08,WUHU216HW,2013-06-13 23:55:00,
2013-06-13 20:00:00,68.7,64.6,0.00,SE,135,0.0,0.0,87,0.00,,,0.08,WUHU216HW,2013-06-14 00:00:00,
2013-06-13 20:05:00,68.7,64.6,0.00,SE,135,0.0,0.0,87,0.00,,,0.08,WUHU216HW,2013-06-14 00:05:00,
2013-06-13 20:10:00,68.7,64.6,0.00,SE,135,0.0,0.0,87,0.00,,,0.08,WUHU216HW,2013-06-14 00:10:00,
2013-06-13 20:15:00,68.7,64.6,0.00,SE,135,0.0,0.0,87,0.00,,,0.08,WUHU216HW,2013-06-14 00:15:00,
2013-06-13 20:20:00,68.7,64.6,0.00,SE,135,0.0,0.0,87,0.00,,,0.08,WUHU216HW,2013-06-14 00:20:00,
2013-06-13 20:25:00,68.7,64.6,0.00,SE,135,0.0,0.0,87,0.00,,,0.08,WUHU216HW,2013-06-14 00:25:00,
2013-06-13 20:30:00,68.5,64.4,0.00,SE,135,0.0,0.0,87,0.00,,,0.08,WUHU216HW,2013-06-14 00:30:00,
2013-06-13 20:35:00,68.5,64.4,0.00,SE,135,0.0,0.0,87,0.00,,,0.08,WUHU216HW,2013-06-14 00:35:00,
2013-06-13 20:40:00,68.3,64.4,0.00,SE,135,0.0,0.0,87,0.00,,,0.08,WUHU216HW,2013-06-14 00:40:00,
2013-06-13 20:45:00,68.3,64.3,0.00,SE,135,0.0,0.0,87,0.00,,,0.08,WUHU216HW,2013-06-14 00:45:00,
2013-06-13 20:50:00,68.1,64.1,0.00,SE,135,0.0,0.0,87,0.00,,,0.08,WUHU216HW,2013-06-14 00:50:00,
2013-06-13 20:55:00,67.8,63.7,0.00,SE,135,0.0,0.0,87,0.00,,,0.08,WUHU216HW,2013-06-14 00:55:00,
2013-06-13 21:00:00,67.8,63.7,0.00,SE,135,0.0,0.0,87,0.00,,,0.08,WUHU216HW,2013-06-14 01:00:00,
2013-06-13 21:05:00,67.8,63.7,0.00,SE,135,0.0,0.0,87,0.00,,,0.08,WUHU216HW,2013-06-14 01:05:00,
2013-06-13 21:10:00,67.6,63.6,0.00,SE,135,0.0,0.0,87,0.00,,,0.08,WUHU216HW,2013-06-14 01:10:00,
2013-06-13 21:15:00,67.2,63.2,0.00,SE,135,0.0,0.0,87,0.00,,,0.08,WUHU216HW,2013-06-14 01:15:00,
2013-06-13 21:20:00,67.2,63.5,0.00,SE,135,0.0,0.0,88,0.00,,,0.08,WUHU216HW,2013-06-14 01:20:00,
2013-06-13 21:25:00,67.1,63.3,0.00,SE,135,0.0,0.0,88,0.00,,,0.08,WUHU216HW,2013-06-14 01:25:00,
2013-06-13 21:30:00,66.9,63.2,0.00,SE,135,0.0,0.0,88,0.00,,,0.08,WUHU216HW,2013-06-14 01:30:00,
2013-06-13 21:35:00,66.9,63.2,0.00,SE,135,0.0,0.0,88,0.00,,,0.08,WUHU216HW,2013-06-14 01:35:00,
2013-06-13 21:40:00,66.7,63.0,0.00,SE,135,0.0,0.0,88,0.00,,,0.08,WUHU216HW,2013-06-14 01:40:00,
2013-06-13 21:45:00,66.7,63.0,0.00,SE,135,0.0,0.0,88,0.00,,,0.08,WUHU216HW,2013-06-14 01:45:00,
2013-06-13 21:50:00,66.7,63.0,0.00,West,270,0.0,0.0,88,0.00,,,0.08,WUHU216HW,2013-06-14 01:50:00,
2013-06-13 21:55:00,66.7,63.0,0.00,West,270,0.0,0.0,88,0.00,,,0.08,WUHU216HW,2013-06-14 01:55:00,
2013-06-13 22:00:00,66.5,62.8,0.00,West,270,0.0,0.0,88,0.00,,,0.08,WUHU216HW,2013-06-14 02:00:00,
2013-06-13 22:05:00,66.3,62.6,0.00,West,270,0.0,0.0,88,0.00,,,0.08,WUHU216HW,2013-06-14 02:05:00,
2013-06-13 22:10:00,66.3,62.6,0.00,West,270,0.0,0.0,88,0.00,,,0.08,WUHU216HW,2013-06-14 02:10:00,
2013-06-13 22:15:00,66.3,62.6,0.00,West,270,0.0,0.0,88,0.00,,,0.08,WUHU216HW,2013-06-14 02:15:00,
2013-06-13 22:20:00,66.0,62.3,0.00,West,270,0.0,0.0,88,0.00,,,0.08,WUHU216HW,2013-06-14 02:20:00,
2013-06-13 22:25:00,66.0,62.3,0.00,WSW,248,0.0,0.0,88,0.00,,,0.08,WUHU216HW,2013-06-14 02:25:00,
2013-06-13 22:30:00,66.0,62.3,0.00,WSW,248,0.0,0.0,88,0.00,,,0.08,WUHU216HW,2013-06-14 02:30:00,
2013-06-13 22:35:00,65.8,62.1,0.00,WSW,248,0.0,0.0,88,0.00,,,0.08,WUHU216HW,2013-06-14 02:35:00,
2013-06-13 22:40:00,65.8,62.1,0.00,WSW,248,0.0,0.0,88,0.00,,,0.08,WUHU216HW,2013-06-14 02:40:00,
2013-06-13 22:45:00,65.8,62.1,0.00,WSW,248,0.0,0.0,88,0.00,,,0.08,WUHU216HW,2013-06-14 02:45:00,
2013-06-13 22:50:00,65.8,62.1,0.00,West,270,0.0,0.0,88,0.00,,,0.08,WUHU216HW,2013-06-14 02:50:00,
2013-06-13 22:55:00,65.8,62.1,0.00,ESE,113,1.7,1.7,88,0.00,,,0.08,WUHU216HW,2013-06-14 02:55:00,
2013-06-13 23:00:00,65.8,62.4,0.00,SE,135,0.0,1.7,89,0.00,,,0.08,WUHU216HW,2013-06-14 03:00:00,
2013-06-13 23:05:00,65.8,62.4,0.00,SE,135,0.0,1.7,89,0.00,,,0.08,WUHU216HW,2013-06-14 03:05:00,
2013-06-13 23:10:00,66.0,62.6,0.00,SE,135,0.0,0.0,89,0.00,,,0.08,WUHU216HW,2013-06-14 03:10:00,
2013-06-13 23:15:00,66.0,62.6,0.00,NW,315,0.0,2.2,89,0.00,,,0.08,WUHU216HW,2013-06-14 03:15:00,
2013-06-13 23:20:00,66.0,62.6,0.00,West,270,0.0,2.2,89,0.00,,,0.08,WUHU216HW,2013-06-14 03:20:00,
2013-06-13 23:25:00,66.0,62.6,0.00,NW,315,0.0,0.0,89,0.00,,,0.08,WUHU216HW,2013-06-14 03:25:00,
2013-06-13 23:30:00,66.0,62.8,0.00,West,270,0.0,0.0,89,0.00,,,0.08,WUHU216HW,2013-06-14 03:30:00,
2013-06-13 23:35:00,66.0,62.6,0.00,West,270,0.0,0.0,89,0.00,,,0.08,WUHU216HW,2013-06-14 03:35:00,
2013-06-13 23:40:00,66.0,62.6,0.00,West,270,0.0,0.0,89,0.00,,,0.08,WUHU216HW,2013-06-14 03:40:00,
2013-06-13 23:45:00,66.0,62.3,0.00,West,270,0.0,0.0,88,0.00,,,0.08,WUHU216HW,2013-06-14 03:45:00,
2013-06-13 23:49:00,66.0,62.6,0.00,WSW,248,0.0,0.0,89,0.00,,,0.08,WUHU216HW,2013-06-14 03:49:00,
2013-06-13 23:54:00,66.0,62.6,0.00,WNW,293,0.0,0.0,89,0.00,,,0.08,WUHU216HW,2013-06-14 03:54:00,
2013-06-13 23:59:00,66.0,62.6,0.00,WNW,293,0.0,0.0,89,0.00,,,0.08,WUHU216HW,2013-06-14 03:59:00,